Time;durP1;ratioP1;P1;durP2;ratioP2;P2;SDS_P1;SDS_P2;PMS_P1;PMS_P2;Temp;Humidity;BMP_temperature;BMP_pressure;BME280_temperature;BME280_humidity;BME280_pressure;Samples;Min_cycle;Max_cycle;Signal;HPM_P1;HPM_P2
2020/12/15 00:01:21;;;;;;;7.57;3.22;;;4.60;92.40;;;;;;5035627;28;20017;-69
2020/12/15 00:03:48;;;;;;;8.38;3.40;;;4.70;92.10;;;;;;5033573;28;20045;-69
2020/12/15 00:06:15;;;;;;;5.70;3.15;;;4.70;91.90;;;;;;5023875;28;20116;-68
2020/12/15 00:08:40;;;;;;;6.55;3.30;;;4.70;91.70;;;;;;5034669;28;20048;-69
2020/12/15 00:11:06;;;;;;;6.20;3.10;;;4.60;92.50;;;;;;5034813;28;20060;-69
2020/12/15 00:13:31;;;;;;;7.53;3.30;;;4.50;92.80;;;;;;5032672;28;20033;-69
2020/12/15 00:15:57;;;;;;;6.07;2.83;;;4.60;92.90;;;;;;5031852;28;20045;-69
2020/12/15 00:18:23;;;;;;;5.03;2.83;;;4.60;92.50;;;;;;5030675;28;20535;-68
2020/12/15 00:20:48;;;;;;;6.38;3.00;;;4.80;91.40;;;;;;5028441;28;20028;-68
2020/12/15 00:23:14;;;;;;;5.47;2.85;;;4.90;91.20;;;;;;5027841;28;20418;-68
2020/12/15 00:25:40;;;;;;;4.57;2.72;;;4.90;91.10;;;;;;5032820;28;20037;-69
2020/12/15 00:28:06;;;;;;;5.35;3.10;;;5.00;90.60;;;;;;5027783;28;20048;-69
2020/12/15 00:30:35;;;;;;;5.90;3.20;;;5.00;90.30;;;;;;5030418;28;20029;-69
2020/12/15 00:33:01;;;;;;;5.70;2.88;;;5.00;90.50;;;;;;5025617;28;20042;-69
2020/12/15 00:35:27;;;;;;;5.32;3.10;;;5.00;90.70;;;;;;5029841;28;20029;-68
2020/12/15 00:37:53;;;;;;;6.40;3.40;;;5.00;90.80;;;;;;5028804;28;20025;-69
2020/12/15 00:40:18;;;;;;;5.18;2.83;;;5.00;90.70;;;;;;5029019;28;20032;-69
2020/12/15 00:42:44;;;;;;;7.85;2.97;;;5.00;90.50;;;;;;5029625;28;20128;-69
2020/12/15 00:45:10;;;;;;;12.18;3.20;;;5.10;90.40;;;;;;5034190;28;20038;-69
2020/12/15 00:47:35;;;;;;;5.55;2.72;;;5.10;90.40;;;;;;5026949;28;20029;-69
2020/12/15 00:50:01;;;;;;;5.65;3.00;;;5.10;90.50;;;;;;5028872;28;20021;-69
2020/12/15 00:52:29;;;;;;;5.10;3.30;;;5.10;90.40;;;;;;5027799;28;20056;-69
2020/12/15 00:54:55;;;;;;;5.35;3.22;;;5.00;90.10;;;;;;5026517;28;20053;-69
2020/12/15 00:57:20;;;;;;;4.82;3.00;;;5.10;89.90;;;;;;5032684;28;20064;-69
2020/12/15 00:59:46;;;;;;;5.55;3.03;;;5.20;90.00;;;;;;5034594;28;20032;-69
2020/12/15 01:02:12;;;;;;;4.63;2.58;;;5.20;90.00;;;;;;5031728;28;20048;-69
2020/12/15 01:04:37;;;;;;;4.50;2.88;;;5.20;90.70;;;;;;5030567;28;20043;-69
2020/12/15 01:07:03;;;;;;;5.47;2.88;;;5.20;90.90;;;;;;5034265;28;20026;-69
2020/12/15 01:09:29;;;;;;;5.55;2.97;;;5.20;90.70;;;;;;5032545;28;20037;-69
2020/12/15 01:11:57;;;;;;;6.18;3.28;;;5.20;90.70;;;;;;5035505;28;20029;-68
2020/12/15 01:14:23;;;;;;;4.18;2.33;;;5.40;90.20;;;;;;5029376;28;20076;-69
2020/12/15 01:16:49;;;;;;;4.60;2.40;;;5.40;90.50;;;;;;5031127;28;20033;-68
2020/12/15 01:19:15;;;;;;;3.47;2.10;;;5.50;90.80;;;;;;5040279;28;20033;-69
2020/12/15 01:21:41;;;;;;;3.95;2.10;;;5.60;90.60;;;;;;5038666;28;20037;-68
2020/12/15 01:24:07;;;;;;;4.72;2.15;;;5.70;89.90;;;;;;5027625;28;20343;-69
2020/12/15 01:26:32;;;;;;;4.20;2.00;;;5.90;89.50;;;;;;5029969;28;20331;-69
2020/12/15 01:28:58;;;;;;;4.30;2.10;;;6.00;89.40;;;;;;5034045;28;20048;-69
2020/12/15 01:31:25;;;;;;;6.75;1.88;;;5.90;89.90;;;;;;5032871;28;20029;-68
2020/12/15 01:33:52;;;;;;;3.70;1.80;;;6.00;90.20;;;;;;5033653;28;20044;-69
2020/12/15 01:36:29;;;;;;;3.25;1.60;;;6.10;89.90;;;;;;5032911;28;20126;-68
2020/12/15 01:38:58;;;;;;;4.22;1.85;;;6.10;90.00;;;;;;5033830;28;20029;-68
2020/12/15 01:41:23;;;;;;;3.55;1.90;;;6.10;89.90;;;;;;5029030;28;20022;-69
2020/12/15 01:44:03;;;;;;;4.15;2.30;;;6.10;89.90;;;;;;5033823;28;20093;-69
2020/12/15 01:46:33;;;;;;;4.40;2.00;;;6.00;90.20;;;;;;5032523;28;20013;-69
2020/12/15 01:49:02;;;;;;;3.33;1.55;;;5.90;91.10;;;;;;5033922;28;20040;-68
2020/12/15 01:51:29;;;;;;;3.78;1.65;;;6.00;90.60;;;;;;5033143;28;20108;-69
2020/12/15 01:53:59;;;;;;;2.63;1.30;;;6.20;90.50;;;;;;5016338;28;20022;-68
2020/12/15 01:56:26;;;;;;;4.50;2.38;;;6.20;90.70;;;;;;5032792;28;20030;-68
2020/12/15 01:59:01;;;;;;;3.78;2.03;;;6.30;90.70;;;;;;5025183;28;20021;-68
2020/12/15 02:01:27;;;;;;;2.75;1.30;;;6.30;91.00;;;;;;5028957;28;20476;-67
2020/12/15 02:03:53;;;;;;;3.90;1.77;;;6.40;90.60;;;;;;5030052;28;20033;-68
2020/12/15 02:06:23;;;;;;;4.65;2.70;;;6.50;90.60;;;;;;5034116;28;20041;-68
2020/12/15 02:08:49;;;;;;;4.13;2.13;;;6.30;90.90;;;;;;5033089;28;20059;-69
2020/12/15 02:11:15;;;;;;;3.83;1.98;;;6.10;91.00;;;;;;5033861;28;20041;-69
2020/12/15 02:13:41;;;;;;;5.30;2.80;;;6.00;91.90;;;;;;5033853;28;20075;-69
2020/12/15 02:16:14;;;;;;;4.45;2.65;;;5.90;91.80;;;;;;5030764;28;20116;-69
2020/12/15 02:18:40;;;;;;;5.35;2.53;;;5.80;91.80;;;;;;5022935;28;20378;-68
2020/12/15 02:21:07;;;;;;;4.47;2.40;;;5.70;92.10;;;;;;5029023;28;20036;-68
2020/12/15 02:23:33;;;;;;;6.85;2.65;;;5.70;92.20;;;;;;5032848;28;20026;-69
2020/12/15 02:26:02;;;;;;;3.20;1.63;;;5.60;92.30;;;;;;5030009;28;20029;-68
2020/12/15 02:28:28;;;;;;;4.15;2.22;;;5.60;92.80;;;;;;5031697;28;20025;-68
2020/12/15 02:30:53;;;;;;;4.82;2.22;;;5.60;92.70;;;;;;5033358;28;20065;-68
2020/12/15 02:33:19;;;;;;;3.78;2.10;;;5.60;92.60;;;;;;5030476;28;20057;-68
2020/12/15 02:35:45;;;;;;;3.70;2.00;;;5.60;92.40;;;;;;5032889;28;20021;-68
2020/12/15 02:38:10;;;;;;;3.53;1.60;;;5.60;92.70;;;;;;5024813;28;20026;-69
2020/12/15 02:40:39;;;;;;;3.50;2.03;;;5.70;92.80;;;;;;5033424;28;20113;-69
2020/12/15 02:43:05;;;;;;;3.90;2.17;;;5.90;92.20;;;;;;5032010;28;20029;-69
2020/12/15 02:45:30;;;;;;;4.05;2.10;;;5.90;92.20;;;;;;5032331;28;20037;-69
2020/12/15 02:47:56;;;;;;;3.60;1.88;;;5.80;92.80;;;;;;5034253;28;20045;-69
2020/12/15 02:50:23;;;;;;;4.82;2.05;;;5.70;93.00;;;;;;5028826;28;20022;-69
2020/12/15 02:52:49;;;;;;;4.43;1.77;;;5.70;93.70;;;;;;5024557;28;20033;-69
2020/12/15 02:55:19;;;;;;;2.92;1.73;;;5.80;93.30;;;;;;5032449;28;20409;-69
2020/12/15 02:57:48;;;;;;;2.50;1.40;;;6.00;92.80;;;;;;5031690;28;20072;-69
2020/12/15 03:00:13;;;;;;;4.00;1.60;;;6.10;92.70;;;;;;5033270;28;20487;-69
2020/12/15 03:02:42;;;;;;;3.80;2.00;;;6.20;92.60;;;;;;5026734;28;20025;-69
2020/12/15 03:05:07;;;;;;;3.22;1.50;;;6.20;92.20;;;;;;5033116;28;20075;-69
2020/12/15 03:07:33;;;;;;;4.75;1.63;;;6.30;91.90;;;;;;5028064;28;20034;-69
2020/12/15 03:09:59;;;;;;;3.53;1.98;;;6.60;90.40;;;;;;5019021;28;20041;-69
2020/12/15 03:12:27;;;;;;;2.55;1.60;;;6.70;89.90;;;;;;5031313;28;20126;-68
2020/12/15 03:14:53;;;;;;;3.40;1.63;;;6.70;89.70;;;;;;5034101;28;20014;-69
2020/12/15 03:17:19;;;;;;;3.17;1.50;;;6.80;89.20;;;;;;5031030;28;20549;-69
2020/12/15 03:19:45;;;;;;;2.30;1.30;;;6.90;88.60;;;;;;5032689;28;20033;-69
2020/12/15 03:22:14;;;;;;;3.10;1.40;;;7.00;88.30;;;;;;5031004;28;20034;-69
2020/12/15 03:24:41;;;;;;;2.90;1.30;;;7.20;87.80;;;;;;5032841;28;20117;-69
2020/12/15 03:27:06;;;;;;;2.80;1.52;;;7.10;88.20;;;;;;5033572;28;20033;-68
2020/12/15 03:29:32;;;;;;;2.58;1.50;;;7.00;89.00;;;;;;5028906;28;20034;-69
2020/12/15 03:31:58;;;;;;;2.67;1.30;;;6.90;88.90;;;;;;5025146;28;20067;-68
2020/12/15 03:34:23;;;;;;;3.72;1.83;;;6.90;89.10;;;;;;5035143;28;20061;-68
2020/12/15 03:36:49;;;;;;;3.72;1.98;;;6.90;89.20;;;;;;5035747;28;20029;-69
2020/12/15 03:39:15;;;;;;;3.33;1.58;;;6.70;89.60;;;;;;5036882;28;20028;-69
2020/12/15 03:41:41;;;;;;;3.40;1.77;;;6.60;90.40;;;;;;5034857;28;20083;-68
2020/12/15 03:44:07;;;;;;;2.95;1.50;;;6.40;90.00;;;;;;5043678;28;20044;-68
2020/12/15 03:46:32;;;;;;;3.90;1.95;;;6.30;90.50;;;;;;5040105;28;20070;-69
2020/12/15 03:48:58;;;;;;;4.40;2.25;;;6.10;90.80;;;;;;5054730;28;20441;-68
2020/12/15 03:51:24;;;;;;;6.65;3.60;;;6.00;91.30;;;;;;5035909;28;20037;-68
2020/12/15 03:53:49;;;;;;;6.10;3.60;;;5.80;91.50;;;;;;5032795;28;20030;-68
2020/12/15 03:56:15;;;;;;;9.88;5.95;;;5.50;92.00;;;;;;5034976;28;20028;-68
2020/12/15 03:58:41;;;;;;;9.95;6.13;;;5.20;93.10;;;;;;5036954;28;20567;-69
2020/12/15 04:01:07;;;;;;;9.63;5.97;;;4.80;94.20;;;;;;5028243;28;20083;-69
2020/12/15 04:03:33;;;;;;;10.23;5.57;;;4.60;94.80;;;;;;5035282;28;20440;-69
2020/12/15 04:05:59;;;;;;;9.50;4.93;;;4.60;94.50;;;;;;5036547;28;20022;-69
2020/12/15 04:08:25;;;;;;;8.15;4.45;;;4.60;94.30;;;;;;5033776;28;20021;-69
2020/12/15 04:10:52;;;;;;;12.02;5.03;;;4.60;94.00;;;;;;5034976;28;20413;-69
2020/12/15 04:13:19;;;;;;;9.65;5.82;;;4.70;94.30;;;;;;5035613;28;20036;-69
2020/12/15 04:15:46;;;;;;;7.85;4.90;;;4.70;95.00;;;;;;5034683;28;20079;-69
2020/12/15 04:18:15;;;;;;;7.13;4.43;;;4.60;95.50;;;;;;5036174;28;20017;-68
2020/12/15 04:20:40;;;;;;;6.75;4.28;;;4.60;95.70;;;;;;5026475;28;20056;-69
2020/12/15 04:23:06;;;;;;;6.78;3.60;;;4.70;95.80;;;;;;5036079;28;20033;-68
2020/12/15 04:25:35;;;;;;;4.60;2.95;;;4.90;95.40;;;;;;5034087;28;20026;-68
2020/12/15 04:28:00;;;;;;;5.15;3.17;;;5.10;94.90;;;;;;5035669;28;20074;-69
2020/12/15 04:30:26;;;;;;;5.03;3.00;;;5.30;94.20;;;;;;5035212;28;20465;-68
2020/12/15 04:32:52;;;;;;;14.35;5.85;;;5.40;93.80;;;;;;5038391;28;20028;-68
2020/12/15 04:35:17;;;;;;;8.07;5.68;;;5.40;93.60;;;;;;5039346;28;20029;-69
2020/12/15 04:37:43;;;;;;;4.32;2.30;;;5.50;93.40;;;;;;5030814;28;20022;-69
2020/12/15 04:40:08;;;;;;;3.25;1.80;;;5.60;93.50;;;;;;5023197;28;20075;-69
2020/12/15 04:42:35;;;;;;;3.13;1.88;;;5.70;93.60;;;;;;5034254;28;20029;-69
2020/12/15 04:45:01;;;;;;;10.55;7.63;;;5.80;93.90;;;;;;5035856;28;20083;-68
2020/12/15 04:48:09;;;;;;;7.10;4.82;;;5.70;94.50;;;;;;5033965;28;20033;-69
2020/12/15 04:50:37;;;;;;;4.53;2.70;;;5.70;94.10;;;;;;5028687;28;20038;-68
2020/12/15 04:53:07;;;;;;;4.57;2.42;;;5.90;93.40;;;;;;5029840;28;20429;-68
2020/12/15 04:55:35;;;;;;;5.95;2.90;;;5.80;92.90;;;;;;5034323;28;20385;-68
2020/12/15 04:58:04;;;;;;;8.55;3.30;;;5.70;92.40;;;;;;5030798;28;20318;-68
2020/12/15 05:00:30;;;;;;;5.05;2.80;;;5.60;92.80;;;;;;5029121;28;20087;-70
2020/12/15 05:02:57;;;;;;;6.25;3.47;;;5.60;93.40;;;;;;5033319;28;20083;-68
2020/12/15 05:05:26;;;;;;;5.07;3.00;;;5.50;94.00;;;;;;5034877;28;20079;-69
2020/12/15 05:07:53;;;;;;;6.18;3.10;;;5.40;93.70;;;;;;5029505;28;20040;-69
2020/12/15 05:10:20;;;;;;;7.20;4.28;;;5.30;93.90;;;;;;5034417;28;20034;-69
2020/12/15 05:12:47;;;;;;;6.85;3.80;;;5.30;94.00;;;;;;5034502;28;20025;-68
2020/12/15 05:15:17;;;;;;;4.40;2.50;;;5.30;94.30;;;;;;5035529;28;20032;-69
2020/12/15 05:17:44;;;;;;;4.32;2.30;;;5.30;94.70;;;;;;5033521;28;20105;-69
2020/12/15 05:20:15;;;;;;;4.07;2.20;;;5.30;94.70;;;;;;5035002;28;20442;-68
2020/12/15 05:22:48;;;;;;;4.00;2.33;;;5.40;94.50;;;;;;5034700;28;20034;-69
2020/12/15 05:25:25;;;;;;;4.60;2.40;;;5.30;94.80;;;;;;5034568;28;20038;-68
2020/12/15 05:27:52;;;;;;;10.18;4.18;;;5.30;95.00;;;;;;5034978;28;20034;-69
2020/12/15 05:30:20;;;;;;;8.73;5.00;;;5.40;95.00;;;;;;5030309;28;20354;-69
2020/12/15 05:32:53;;;;;;;5.32;2.88;;;5.50;94.60;;;;;;5034401;28;20033;-68
2020/12/15 05:35:33;;;;;;;3.47;2.05;;;5.60;94.40;;;;;;5033896;28;20036;-69
2020/12/15 05:38:03;;;;;;;6.35;3.22;;;5.40;94.30;;;;;;5035023;28;20026;-68
2020/12/15 05:40:30;;;;;;;10.40;4.95;;;5.30;94.90;;;;;;5035102;28;20072;-69
2020/12/15 05:42:58;;;;;;;8.15;4.25;;;5.30;95.00;;;;;;5034234;28;20145;-69
2020/12/15 05:45:25;;;;;;;5.72;3.20;;;5.30;95.20;;;;;;5034347;28;20040;-69
2020/12/15 05:48:06;;;;;;;8.68;6.60;;;5.20;95.50;;;;;;5033431;28;20470;-69
2020/12/15 05:50:35;;;;;;;25.60;14.65;;;5.20;96.00;;;;;;5031572;28;20029;-69
2020/12/15 05:53:03;;;;;;;30.17;14.93;;;5.20;96.40;;;;;;5035085;28;20040;-69
2020/12/15 05:55:30;;;;;;;9.88;4.90;;;5.30;96.20;;;;;;5035877;28;20033;-69
2020/12/15 05:57:57;;;;;;;11.55;5.10;;;5.40;95.90;;;;;;5035027;28;20029;-69
2020/12/15 06:00:28;;;;;;;4.78;2.55;;;5.50;95.80;;;;;;5030199;28;20021;-69
2020/12/15 06:02:58;;;;;;;3.65;1.92;;;5.50;95.90;;;;;;5025156;28;20033;-68
2020/12/15 06:05:31;;;;;;;2.85;1.67;;;5.50;96.00;;;;;;5030407;28;20048;-69
2020/12/15 06:07:58;;;;;;;3.90;1.85;;;5.50;96.20;;;;;;5034794;28;20101;-68
2020/12/15 06:10:25;;;;;;;10.85;8.18;;;5.50;96.10;;;;;;5030343;28;20040;-69
2020/12/15 06:12:52;;;;;;;8.20;4.07;;;5.60;95.70;;;;;;5032822;28;20036;-69
2020/12/15 06:15:20;;;;;;;4.10;2.40;;;5.80;94.50;;;;;;5030159;28;20029;-69
2020/12/15 06:18:10;;;;;;;2.38;1.50;;;6.20;93.10;;;;;;5022695;28;20017;-69
2020/12/15 06:20:38;;;;;;;1.65;1.02;;;6.50;92.00;;;;;;5032981;28;20060;-68
2020/12/15 06:23:11;;;;;;;2.17;1.10;;;6.80;90.80;;;;;;5034536;28;20025;-69
2020/12/15 06:25:38;;;;;;;1.50;0.98;;;6.90;90.00;;;;;;5034798;28;20490;-69
2020/12/15 06:28:11;;;;;;;1.95;1.10;;;7.00;89.70;;;;;;5034874;28;20025;-69
2020/12/15 06:30:41;;;;;;;1.50;1.00;;;7.10;90.10;;;;;;5033517;28;20325;-69
2020/12/15 06:33:12;;;;;;;1.15;0.90;;;7.10;89.90;;;;;;5033812;28;20038;-69
2020/12/15 06:35:39;;;;;;;3.55;1.08;;;7.00;90.80;;;;;;5034287;28;20029;-68
2020/12/15 06:38:15;;;;;;;1.98;1.00;;;7.00;91.60;;;;;;5034380;28;20030;-68
2020/12/15 06:40:45;;;;;;;1.88;1.00;;;7.00;91.60;;;;;;5034481;28;20373;-69
2020/12/15 06:43:18;;;;;;;1.17;0.90;;;7.00;90.30;;;;;;5034669;28;20526;-68
2020/12/15 06:45:44;;;;;;;1.52;0.90;;;7.20;89.10;;;;;;5033729;28;20033;-69
2020/12/15 06:48:14;;;;;;;2.08;0.98;;;7.30;88.90;;;;;;5034594;28;20504;-69
2020/12/15 06:50:45;;;;;;;9.00;4.13;;;7.30;89.10;;;;;;5033372;28;20026;-68
2020/12/15 06:53:12;;;;;;;7.88;3.70;;;7.20;89.90;;;;;;5034275;28;20045;-68
2020/12/15 06:55:38;;;;;;;3.95;1.90;;;7.10;90.70;;;;;;5034311;28;20022;-68
2020/12/15 06:58:04;;;;;;;2.42;1.20;;;6.90;91.80;;;;;;5033846;28;20429;-68
2020/12/15 07:00:40;;;;;;;0.73;0.70;;;7.00;92.40;;;;;;5033486;28;20075;-68
2020/12/15 07:03:07;;;;;;;1.27;0.90;;;7.20;90.70;;;;;;5032826;28;20030;-68
2020/12/15 07:05:34;;;;;;;1.65;1.00;;;7.40;90.30;;;;;;5034423;28;20034;-68
2020/12/15 07:08:05;;;;;;;2.42;1.02;;;7.50;89.70;;;;;;5034778;28;20032;-69
2020/12/15 07:10:31;;;;;;;1.98;1.08;;;7.70;89.90;;;;;;5038098;28;20036;-68
2020/12/15 07:13:00;;;;;;;2.20;1.00;;;7.70;89.00;;;;;;5038409;28;20045;-68
2020/12/15 07:15:27;;;;;;;1.83;0.93;;;7.70;87.80;;;;;;5036660;28;20032;-68
2020/12/15 07:17:54;;;;;;;2.30;1.10;;;7.90;87.00;;;;;;5036943;28;20459;-69
2020/12/15 07:20:20;;;;;;;2.60;1.08;;;7.80;87.90;;;;;;5036458;28;20021;-70
2020/12/15 07:22:47;;;;;;;8.77;3.90;;;7.70;89.10;;;;;;5037669;28;20033;-69
2020/12/15 07:25:13;;;;;;;22.35;12.90;;;7.70;89.50;;;;;;5038288;28;20033;-69
2020/12/15 07:27:40;;;;;;;22.25;11.30;;;7.50;89.80;;;;;;5037850;28;20060;-68
2020/12/15 07:30:11;;;;;;;27.75;15.35;;;7.40;90.30;;;;;;5037618;28;20337;-68
2020/12/15 07:32:42;;;;;;;16.95;11.02;;;7.20;90.60;;;;;;5037118;28;20033;-68
2020/12/15 07:35:10;;;;;;;18.05;9.07;;;7.00;91.40;;;;;;5037760;28;20049;-68
2020/12/15 07:37:43;;;;;;;13.38;7.25;;;6.80;92.50;;;;;;5036948;28;20029;-68
2020/12/15 07:40:12;;;;;;;21.70;10.95;;;6.60;93.20;;;;;;5038218;28;20075;-68
2020/12/15 07:42:38;;;;;;;17.63;8.25;;;6.50;93.60;;;;;;5037177;28;20033;-68
2020/12/15 07:45:09;;;;;;;19.92;9.65;;;6.40;93.50;;;;;;5037207;28;20025;-67
2020/12/15 07:47:40;;;;;;;18.77;9.05;;;6.30;93.80;;;;;;5036451;28;20506;-68
2020/12/15 07:50:07;;;;;;;17.95;8.65;;;6.30;94.30;;;;;;5036422;28;20086;-68
2020/12/15 07:52:34;;;;;;;15.43;7.60;;;6.20;94.30;;;;;;5037397;28;20036;-68
2020/12/15 07:55:13;;;;;;;14.57;6.90;;;6.30;94.40;;;;;;5037373;28;20108;-70
2020/12/15 07:57:41;;;;;;;14.98;6.65;;;6.30;94.30;;;;;;5024842;28;20021;-69
2020/12/15 08:00:22;;;;;;;8.40;3.50;;;6.40;94.50;;;;;;5037472;28;20322;-70
2020/12/15 08:02:49;;;;;;;8.15;2.97;;;6.40;94.70;;;;;;5026496;28;20056;-69
2020/12/15 08:05:23;;;;;;;12.13;5.65;;;6.30;95.00;;;;;;5036980;28;20040;-69
2020/12/15 08:07:53;;;;;;;14.00;6.32;;;6.30;95.20;;;;;;5037643;28;20025;-69
2020/12/15 08:10:33;;;;;;;14.02;6.93;;;6.30;94.80;;;;;;5036976;28;20144;-69
2020/12/15 08:13:01;;;;;;;18.63;8.52;;;6.10;94.20;;;;;;5037258;28;20371;-69
2020/12/15 08:15:28;;;;;;;12.73;7.38;;;6.00;94.70;;;;;;5035561;28;20021;-69
2020/12/15 08:17:57;;;;;;;14.55;8.68;;;6.00;94.90;;;;;;5037041;28;20033;-69
2020/12/15 08:20:27;;;;;;;11.93;7.50;;;6.00;94.90;;;;;;5035649;28;20812;-69
2020/12/15 08:23:23;;;;;;;11.82;6.43;;;5.90;95.10;;;;;;5036941;28;20033;-69
2020/12/15 08:25:56;;;;;;;14.73;7.50;;;6.00;95.50;;;;;;5025384;28;20338;-69
2020/12/15 08:28:22;;;;;;;12.88;8.30;;;6.00;95.90;;;;;;5036856;28;20026;-68
2020/12/15 08:30:56;;;;;;;15.30;7.82;;;6.00;96.20;;;;;;5035302;28;20112;-68
2020/12/15 08:33:23;;;;;;;16.10;7.85;;;6.00;96.50;;;;;;5036797;28;20030;-69
2020/12/15 08:35:49;;;;;;;16.30;8.40;;;5.90;97.20;;;;;;5036102;28;20382;-68
2020/12/15 08:38:16;;;;;;;12.00;6.63;;;5.90;97.30;;;;;;5037099;28;20051;-68
2020/12/15 08:40:43;;;;;;;12.70;7.47;;;5.80;97.50;;;;;;5036532;28;20025;-68
2020/12/15 08:43:10;;;;;;;10.40;6.70;;;5.90;97.80;;;;;;5036524;28;20040;-69
2020/12/15 08:45:36;;;;;;;12.98;6.80;;;5.80;98.00;;;;;;5035166;28;20098;-69
2020/12/15 08:48:02;;;;;;;10.85;6.35;;;5.80;98.00;;;;;;5035746;28;20046;-69
2020/12/15 08:50:30;;;;;;;10.88;6.25;;;5.80;98.00;;;;;;5036340;28;20075;-69
2020/12/15 08:53:06;;;;;;;10.00;6.25;;;5.70;98.00;;;;;;5035405;28;20524;-69
2020/12/15 08:55:33;;;;;;;13.30;6.32;;;5.70;98.00;;;;;;5036069;28;20033;-69
2020/12/15 08:58:00;;;;;;;10.57;6.05;;;5.70;98.00;;;;;;5036676;28;20029;-69
2020/12/15 09:00:27;;;;;;;9.35;5.18;;;5.80;98.00;;;;;;5034893;28;20180;-69
2020/12/15 09:03:07;;;;;;;10.77;6.90;;;5.90;98.00;;;;;;5036037;28;20021;-69
2020/12/15 09:05:32;;;;;;;13.15;6.65;;;6.00;98.00;;;;;;5035898;28;20029;-69
2020/12/15 09:08:04;;;;;;;7.15;3.42;;;6.20;98.00;;;;;;5036189;28;20028;-69
2020/12/15 09:10:31;;;;;;;4.90;2.83;;;6.30;98.00;;;;;;5035612;28;20029;-69
2020/12/15 09:12:57;;;;;;;5.05;2.88;;;6.60;98.00;;;;;;5036214;28;20064;-69
2020/12/15 09:15:23;;;;;;;7.07;2.70;;;6.80;98.00;;;;;;5034269;28;20456;-69
2020/12/15 09:17:48;;;;;;;4.65;2.25;;;7.10;98.00;;;;;;5035385;28;20021;-69
2020/12/15 09:20:25;;;;;;;3.80;1.98;;;7.30;98.00;;;;;;5035563;28;20472;-69
2020/12/15 09:22:50;;;;;;;6.30;2.15;;;7.50;98.00;;;;;;5035843;28;20412;-69
2020/12/15 09:25:16;;;;;;;3.67;1.73;;;7.70;98.00;;;;;;5035151;28;20060;-69
2020/12/15 09:27:51;;;;;;;3.45;1.60;;;7.90;98.00;;;;;;5035597;28;20052;-69
2020/12/15 09:30:18;;;;;;;3.67;1.55;;;8.40;98.00;;;;;;5035192;28;20033;-69
2020/12/15 09:32:45;;;;;;;2.72;1.58;;;8.60;98.00;;;;;;5034534;28;20076;-69
2020/12/15 09:35:12;;;;;;;4.72;1.95;;;8.80;98.00;;;;;;5035005;28;20104;-69
2020/12/15 09:37:39;;;;;;;4.70;2.55;;;8.90;98.00;;;;;;5034736;28;20330;-69
2020/12/15 09:40:09;;;;;;;6.03;2.90;;;8.90;98.00;;;;;;5035247;28;20020;-69
2020/12/15 09:42:43;;;;;;;5.03;2.30;;;9.10;98.00;;;;;;5035757;28;20032;-69
2020/12/15 09:45:08;;;;;;;4.93;2.50;;;9.20;98.00;;;;;;5029750;28;20029;-68
2020/12/15 09:47:39;;;;;;;8.40;4.25;;;9.40;97.90;;;;;;5032447;28;20030;-69
2020/12/15 09:50:05;;;;;;;14.02;7.63;;;9.40;97.40;;;;;;5035152;28;20044;-69
2020/12/15 09:52:33;;;;;;;8.55;5.00;;;9.30;96.70;;;;;;5035386;28;20025;-69
2020/12/15 09:54:59;;;;;;;20.48;10.43;;;9.10;96.20;;;;;;5035233;28;20022;-69
2020/12/15 09:57:25;;;;;;;17.52;10.75;;;8.90;96.60;;;;;;5035320;28;20299;-69
2020/12/15 09:59:50;;;;;;;13.10;7.13;;;8.80;96.50;;;;;;5035198;28;20295;-69
2020/12/15 10:02:16;;;;;;;17.13;8.57;;;8.60;96.10;;;;;;5032616;28;20095;-69
2020/12/15 10:04:42;;;;;;;14.95;9.50;;;8.70;96.60;;;;;;5025192;28;20112;-69
2020/12/15 10:07:07;;;;;;;13.05;7.97;;;8.70;96.90;;;;;;5035304;28;20162;-68
2020/12/15 10:09:33;;;;;;;4.90;2.90;;;8.60;97.40;;;;;;5035142;28;20037;-69
2020/12/15 10:12:05;;;;;;;5.90;2.88;;;8.70;97.60;;;;;;5035376;28;20072;-69
2020/12/15 10:14:34;;;;;;;4.57;2.53;;;8.60;97.40;;;;;;5034952;28;20035;-69
2020/12/15 10:17:00;;;;;;;6.93;3.53;;;8.60;98.00;;;;;;5032593;28;20078;-69
2020/12/15 10:19:25;;;;;;;6.68;2.95;;;8.50;98.00;;;;;;5034300;28;20029;-68
2020/12/15 10:21:55;;;;;;;5.25;2.70;;;8.50;98.00;;;;;;5035279;28;20025;-68
2020/12/15 10:24:21;;;;;;;6.43;3.13;;;8.50;98.00;;;;;;5034918;28;20059;-69
2020/12/15 10:26:46;;;;;;;6.47;3.65;;;8.60;98.00;;;;;;5035127;28;20064;-69
2020/12/15 10:29:15;;;;;;;6.43;3.35;;;8.70;98.00;;;;;;5032962;28;20167;-69
2020/12/15 10:31:41;;;;;;;5.40;2.78;;;8.80;98.00;;;;;;5033350;28;20057;-69
2020/12/15 10:34:07;;;;;;;5.00;3.03;;;8.90;98.00;;;;;;5034346;28;20056;-69
2020/12/15 10:36:32;;;;;;;5.70;3.33;;;9.10;98.00;;;;;;5034683;28;20071;-69
2020/12/15 10:39:03;;;;;;;5.25;3.13;;;9.20;98.00;;;;;;5034333;28;20025;-69
2020/12/15 10:41:29;;;;;;;5.07;2.92;;;9.40;98.00;;;;;;5035002;28;20441;-68
2020/12/15 10:43:55;;;;;;;5.28;3.08;;;9.50;98.00;;;;;;5036453;28;20029;-68
2020/12/15 10:46:26;;;;;;;5.50;2.53;;;9.70;98.00;;;;;;5036509;28;20025;-69
2020/12/15 10:48:53;;;;;;;7.18;3.80;;;9.70;95.70;;;;;;5038987;28;20076;-70
2020/12/15 10:51:22;;;;;;;7.85;3.05;;;9.80;95.60;;;;;;5037379;28;20432;-70
2020/12/15 10:53:48;;;;;;;16.15;10.45;;;9.90;95.70;;;;;;5038848;28;20017;-71
2020/12/15 10:56:14;;;;;;;13.38;7.28;;;10.00;95.50;;;;;;5038182;28;20026;-70
2020/12/15 10:58:40;;;;;;;14.98;8.05;;;10.20;95.20;;;;;;5038420;28;20033;-69
2020/12/15 11:01:07;;;;;;;11.88;7.78;;;10.40;94.60;;;;;;5037544;28;20029;-70
2020/12/15 11:03:34;;;;;;;11.55;7.60;;;10.40;94.30;;;;;;5038875;28;20021;-70
2020/12/15 11:05:59;;;;;;;15.20;8.55;;;10.50;94.60;;;;;;5038116;28;20032;-69
2020/12/15 11:08:25;;;;;;;15.90;9.13;;;10.70;94.20;;;;;;5038602;28;20029;-69
2020/12/15 11:10:53;;;;;;;11.27;7.15;;;10.70;94.60;;;;;;5038499;28;20446;-70
2020/12/15 11:13:19;;;;;;;12.20;7.82;;;10.80;94.60;;;;;;5038493;28;20034;-69
2020/12/15 11:15:47;;;;;;;6.38;4.00;;;11.00;94.50;;;;;;5037445;28;20099;-69
2020/12/15 11:18:13;;;;;;;10.07;4.80;;;11.20;93.30;;;;;;5037570;28;20049;-69
2020/12/15 11:20:38;;;;;;;5.93;2.80;;;11.20;93.80;;;;;;5034616;28;20422;-69
2020/12/15 11:23:05;;;;;;;9.45;4.80;;;11.30;92.50;;;;;;5037441;28;20036;-69
2020/12/15 11:25:31;;;;;;;6.15;2.38;;;11.40;92.50;;;;;;5037849;28;20522;-69
2020/12/15 11:27:57;;;;;;;4.90;2.17;;;11.30;92.70;;;;;;5026362;28;20053;-69
2020/12/15 11:30:23;;;;;;;5.47;1.85;;;11.30;92.60;;;;;;5031908;28;20029;-69
2020/12/15 11:32:49;;;;;;;2.97;1.65;;;11.40;92.60;;;;;;5038196;28;20436;-69
2020/12/15 11:35:15;;;;;;;4.50;1.80;;;11.40;92.90;;;;;;5038073;28;20053;-69
2020/12/15 11:37:42;;;;;;;5.03;1.80;;;11.50;92.70;;;;;;5038256;28;20030;-69
2020/12/15 11:40:13;;;;;;;4.55;2.22;;;11.50;91.50;;;;;;5038054;28;20071;-69
2020/12/15 11:42:40;;;;;;;7.07;3.67;;;11.50;92.10;;;;;;5037937;28;20056;-69
2020/12/15 11:45:07;;;;;;;4.38;2.40;;;11.50;91.30;;;;;;5038147;28;20033;-69
2020/12/15 11:47:32;;;;;;;4.63;2.42;;;11.60;92.10;;;;;;5036336;28;20026;-70
2020/12/15 11:50:00;;;;;;;4.20;1.98;;;11.60;93.40;;;;;;5037858;28;20032;-69
2020/12/15 11:52:26;;;;;;;4.57;2.28;;;11.60;93.40;;;;;;5037675;28;20037;-70
2020/12/15 11:54:51;;;;;;;4.05;2.20;;;11.70;94.60;;;;;;5036063;28;20033;-69
2020/12/15 11:57:18;;;;;;;3.13;1.63;;;11.70;94.70;;;;;;5037742;28;20021;-69
2020/12/15 11:59:44;;;;;;;4.72;2.25;;;11.60;95.50;;;;;;5037695;28;20287;-69
2020/12/15 12:02:12;;;;;;;5.40;2.75;;;11.50;95.00;;;;;;5036782;28;20029;-69
2020/12/15 12:04:38;;;;;;;6.10;3.78;;;11.60;92.30;;;;;;5037698;28;20105;-69
2020/12/15 12:07:08;;;;;;;10.90;5.75;;;11.60;94.90;;;;;;5037725;28;20033;-70
2020/12/15 12:09:35;;;;;;;7.15;4.43;;;11.50;93.70;;;;;;5035651;28;20030;-69
2020/12/15 12:12:00;;;;;;;5.88;3.40;;;11.50;94.40;;;;;;5036063;28;20037;-69
2020/12/15 12:14:26;;;;;;;6.00;3.10;;;11.40;94.90;;;;;;5037328;28;20026;-70
2020/12/15 12:16:52;;;;;;;14.43;6.78;;;11.40;95.50;;;;;;5034656;28;20433;-69
2020/12/15 12:19:17;;;;;;;13.77;8.50;;;11.40;95.20;;;;;;5037226;28;20115;-69
2020/12/15 12:21:44;;;;;;;16.95;9.30;;;11.40;95.30;;;;;;5037019;28;20034;-70
2020/12/15 12:24:10;;;;;;;22.27;13.35;;;11.30;95.50;;;;;;5036862;28;20017;-70
2020/12/15 12:26:36;;;;;;;21.85;12.48;;;11.20;95.60;;;;;;5037131;28;20096;-69
2020/12/15 12:29:02;;;;;;;11.88;7.88;;;11.10;96.80;;;;;;5036319;28;20111;-69
2020/12/15 12:31:27;;;;;;;16.98;10.93;;;11.00;97.10;;;;;;5035453;28;20109;-69
2020/12/15 12:33:53;;;;;;;17.92;12.43;;;11.00;97.10;;;;;;5036313;28;20033;-70
2020/12/15 12:36:19;;;;;;;27.15;16.60;;;10.90;97.80;;;;;;5037088;28;20064;-70
2020/12/15 12:38:45;;;;;;;20.65;13.63;;;10.70;97.30;;;;;;5036754;28;20057;-69
2020/12/15 12:41:16;;;;;;;23.75;14.55;;;10.60;97.70;;;;;;5036039;28;20036;-70
2020/12/15 12:43:43;;;;;;;19.05;12.07;;;10.30;98.00;;;;;;5036375;28;20037;-69
2020/12/15 12:46:14;;;;;;;15.63;10.38;;;10.10;98.00;;;;;;5034838;28;20095;-69
2020/12/15 12:48:40;;;;;;;16.38;11.07;;;9.90;98.00;;;;;;5035581;28;20068;-70
2020/12/15 12:51:05;;;;;;;17.38;9.98;;;9.70;98.00;;;;;;5035552;28;20033;-70
2020/12/15 12:53:31;;;;;;;12.35;7.82;;;9.70;98.00;;;;;;5036162;28;20386;-70
2020/12/15 12:55:57;;;;;;;12.18;6.78;;;9.70;98.00;;;;;;5036565;28;20026;-69